sensor_id;sensor_type;location;lat;lon;timestamp;P1;durP1;ratioP1;P2;durP2;ratioP2
72603;SDS011;60645;56.968;24.196;2022-09-02T09:43:28;2.58;;;0.68;;
72603;SDS011;60645;56.968;24.196;2022-09-02T09:45:57;3.10;;;0.47;;
72603;SDS011;60645;56.968;24.196;2022-09-02T09:48:25;3.25;;;0.32;;
72603;SDS011;60645;56.968;24.196;2022-09-02T09:53:22;3.92;;;0.45;;
72603;SDS011;60645;56.968;24.196;2022-09-02T09:55:53;9.80;;;1.13;;
72603;SDS011;60645;56.968;24.196;2022-09-02T09:58:26;5.45;;;0.88;;
72603;SDS011;60645;56.968;24.196;2022-09-02T10:01:21;4.95;;;0.47;;
72603;SDS011;60645;56.968;24.196;2022-09-02T10:06:54;5.60;;;0.50;;
72603;SDS011;60645;56.968;24.196;2022-09-02T10:09:29;7.07;;;0.70;;
72603;SDS011;60645;56.968;24.196;2022-09-02T10:14:49;5.10;;;0.52;;
72603;SDS011;60645;56.968;24.196;2022-09-02T10:17:38;5.05;;;0.40;;
72603;SDS011;60645;56.968;24.196;2022-09-02T10:26:14;4.15;;;0.38;;
72603;SDS011;60645;56.968;24.196;2022-09-02T10:29:17;5.75;;;0.40;;
72603;SDS011;60645;56.968;24.196;2022-09-02T10:47:53;4.38;;;0.35;;
72603;SDS011;60645;56.968;24.196;2022-09-02T10:55:51;5.68;;;0.52;;
72603;SDS011;60645;56.968;24.196;2022-09-02T11:01:06;4.45;;;0.45;;
72603;SDS011;60645;56.968;24.196;2022-09-02T11:03:44;5.43;;;0.63;;
72603;SDS011;60645;56.968;24.196;2022-09-02T11:06:25;4.65;;;0.50;;
72603;SDS011;60645;56.968;24.196;2022-09-02T11:12:01;3.05;;;0.30;;
72603;SDS011;60645;56.968;24.196;2022-09-02T11:14:35;2.28;;;0.40;;
72603;SDS011;60645;56.968;24.196;2022-09-02T11:17:21;3.05;;;0.55;;
72603;SDS011;60645;56.968;24.196;2022-09-02T11:23:02;1.27;;;0.30;;
72603;SDS011;60645;56.968;24.196;2022-09-02T11:31:07;1.48;;;0.40;;
72603;SDS011;60645;56.968;24.196;2022-09-02T11:38:57;1.40;;;0.40;;
72603;SDS011;60645;56.968;24.196;2022-09-02T11:47:03;1.70;;;0.45;;
72603;SDS011;60645;56.968;24.196;2022-09-02T11:50:02;4.13;;;0.35;;
72603;SDS011;60645;56.968;24.196;2022-09-02T11:52:48;3.78;;;0.57;;
72603;SDS011;60645;56.968;24.196;2022-09-02T11:55:48;4.75;;;0.60;;
72603;SDS011;60645;56.968;24.196;2022-09-02T11:58:36;5.38;;;0.65;;
72603;SDS011;60645;56.968;24.196;2022-09-02T12:03:52;5.78;;;0.70;;
72603;SDS011;60645;56.968;24.196;2022-09-02T12:07:20;5.85;;;0.80;;
72603;SDS011;60645;56.968;24.196;2022-09-02T12:20:09;5.50;;;0.82;;
72603;SDS011;60645;56.968;24.196;2022-09-02T12:22:38;9.82;;;0.63;;
72603;SDS011;60645;56.968;24.196;2022-09-02T12:36:02;10.02;;;0.73;;
72603;SDS011;60645;56.968;24.196;2022-09-02T12:38:31;10.55;;;1.02;;
72603;SDS011;60645;56.968;24.196;2022-09-02T12:41:14;9.75;;;0.68;;
72603;SDS011;60645;56.968;24.196;2022-09-02T12:46:54;7.65;;;1.05;;
72603;SDS011;60645;56.968;24.196;2022-09-02T12:49:35;7.43;;;0.63;;
72603;SDS011;60645;56.968;24.196;2022-09-02T12:52:08;3.25;;;0.82;;
72603;SDS011;60645;56.968;24.196;2022-09-02T12:57:05;8.07;;;0.82;;
72603;SDS011;60645;56.968;24.196;2022-09-02T12:59:34;5.10;;;0.70;;
72603;SDS011;60645;56.968;24.196;2022-09-02T13:09:55;3.58;;;0.45;;
72603;SDS011;60645;56.968;24.196;2022-09-02T13:33:43;1.88;;;0.40;;
72603;SDS011;60645;56.968;24.196;2022-09-02T13:36:16;6.03;;;0.63;;
72603;SDS011;60645;56.968;24.196;2022-09-02T13:38:52;1.25;;;0.30;;
72603;SDS011;60645;56.968;24.196;2022-09-02T13:41:30;0.80;;;0.30;;
72603;SDS011;60645;56.968;24.196;2022-09-02T13:44:07;3.38;;;0.40;;
72603;SDS011;60645;56.968;24.196;2022-09-02T13:46:49;2.70;;;0.32;;
72603;SDS011;60645;56.968;24.196;2022-09-02T13:52:18;2.85;;;0.45;;
72603;SDS011;60645;56.968;24.196;2022-09-02T13:55:07;2.33;;;0.40;;
72603;SDS011;60645;56.968;24.196;2022-09-02T13:57:38;2.05;;;0.43;;
72603;SDS011;60645;56.968;24.196;2022-09-02T14:00:09;3.10;;;1.08;;
72603;SDS011;60645;56.968;24.196;2022-09-02T14:02:41;1.00;;;0.30;;
72603;SDS011;60645;56.968;24.196;2022-09-02T14:05:25;1.80;;;0.40;;
72603;SDS011;60645;56.968;24.196;2022-09-02T14:07:53;2.85;;;0.43;;
72603;SDS011;60645;56.968;24.196;2022-09-02T14:10:23;3.17;;;0.60;;
72603;SDS011;60645;56.968;24.196;2022-09-02T14:15:25;2.03;;;0.40;;
72603;SDS011;60645;56.968;24.196;2022-09-02T14:23:46;1.40;;;0.43;;
72603;SDS011;60645;56.968;24.196;2022-09-02T14:29:05;3.80;;;0.50;;
72603;SDS011;60645;56.968;24.196;2022-09-02T14:31:33;0.93;;;0.40;;
72603;SDS011;60645;56.968;24.196;2022-09-02T14:34:00;2.58;;;0.60;;
72603;SDS011;60645;56.968;24.196;2022-09-02T14:36:32;1.77;;;0.20;;
72603;SDS011;60645;56.968;24.196;2022-09-02T14:41:45;1.23;;;0.32;;
72603;SDS011;60645;56.968;24.196;2022-09-02T14:44:15;1.15;;;0.40;;
72603;SDS011;60645;56.968;24.196;2022-09-02T14:46:49;1.02;;;0.30;;
72603;SDS011;60645;56.968;24.196;2022-09-02T14:51:57;0.98;;;0.68;;
72603;SDS011;60645;56.968;24.196;2022-09-02T14:54:35;1.23;;;0.73;;
72603;SDS011;60645;56.968;24.196;2022-09-02T14:59:50;1.30;;;0.52;;
72603;SDS011;60645;56.968;24.196;2022-09-02T15:02:21;1.52;;;0.40;;
72603;SDS011;60645;56.968;24.196;2022-09-02T15:04:59;3.15;;;0.65;;
72603;SDS011;60645;56.968;24.196;2022-09-02T15:07:27;1.70;;;0.70;;
72603;SDS011;60645;56.968;24.196;2022-09-02T15:09:54;1.60;;;0.50;;
72603;SDS011;60645;56.968;24.196;2022-09-02T15:12:27;1.00;;;0.50;;
72603;SDS011;60645;56.968;24.196;2022-09-02T15:14:56;1.00;;;0.55;;
72603;SDS011;60645;56.968;24.196;2022-09-02T15:17:24;1.70;;;0.52;;
72603;SDS011;60645;56.968;24.196;2022-09-02T15:19:51;0.80;;;0.70;;
72603;SDS011;60645;56.968;24.196;2022-09-02T15:22:18;3.65;;;0.57;;
72603;SDS011;60645;56.968;24.196;2022-09-02T15:24:45;1.40;;;0.45;;
72603;SDS011;60645;56.968;24.196;2022-09-02T15:27:14;2.33;;;0.60;;
72603;SDS011;60645;56.968;24.196;2022-09-02T15:29:46;1.70;;;0.57;;
72603;SDS011;60645;56.968;24.196;2022-09-02T15:32:13;1.83;;;0.57;;
72603;SDS011;60645;56.968;24.196;2022-09-02T15:34:40;1.17;;;0.50;;
72603;SDS011;60645;56.968;24.196;2022-09-02T15:37:08;2.25;;;0.47;;
72603;SDS011;60645;56.968;24.196;2022-09-02T15:39:38;1.08;;;0.63;;
72603;SDS011;60645;56.968;24.196;2022-09-02T15:42:05;1.95;;;0.60;;
72603;SDS011;60645;56.968;24.196;2022-09-02T15:44:32;1.80;;;0.50;;
72603;SDS011;60645;56.968;24.196;2022-09-02T15:46:59;1.50;;;0.63;;
72603;SDS011;60645;56.968;24.196;2022-09-02T15:49:26;3.83;;;0.77;;
72603;SDS011;60645;56.968;24.196;2022-09-02T15:51:54;2.67;;;0.57;;
72603;SDS011;60645;56.968;24.196;2022-09-02T15:54:22;8.68;;;1.02;;
72603;SDS011;60645;56.968;24.196;2022-09-02T15:56:52;3.95;;;0.70;;
72603;SDS011;60645;56.968;24.196;2022-09-02T15:59:21;4.22;;;1.27;;
72603;SDS011;60645;56.968;24.196;2022-09-02T16:01:50;4.25;;;0.82;;
72603;SDS011;60645;56.968;24.196;2022-09-02T16:04:20;2.30;;;0.80;;
72603;SDS011;60645;56.968;24.196;2022-09-02T16:06:50;5.20;;;0.73;;
72603;SDS011;60645;56.968;24.196;2022-09-02T16:09:17;4.30;;;1.10;;
72603;SDS011;60645;56.968;24.196;2022-09-02T16:11:46;3.30;;;0.73;;
72603;SDS011;60645;56.968;24.196;2022-09-02T16:14:18;4.40;;;0.93;;
72603;SDS011;60645;56.968;24.196;2022-09-02T16:16:47;3.05;;;0.82;;
72603;SDS011;60645;56.968;24.196;2022-09-02T16:19:18;2.80;;;0.80;;
72603;SDS011;60645;56.968;24.196;2022-09-02T16:21:49;2.72;;;0.60;;
72603;SDS011;60645;56.968;24.196;2022-09-02T16:24:17;5.43;;;0.73;;
72603;SDS011;60645;56.968;24.196;2022-09-02T16:26:48;1.55;;;0.52;;
72603;SDS011;60645;56.968;24.196;2022-09-02T16:29:17;3.60;;;0.80;;
72603;SDS011;60645;56.968;24.196;2022-09-02T16:31:45;3.05;;;0.75;;
72603;SDS011;60645;56.968;24.196;2022-09-02T16:34:33;1.48;;;0.70;;
72603;SDS011;60645;56.968;24.196;2022-09-02T16:37:00;2.88;;;0.73;;
72603;SDS011;60645;56.968;24.196;2022-09-02T16:39:27;3.13;;;0.70;;
72603;SDS011;60645;56.968;24.196;2022-09-02T16:41:54;5.43;;;1.13;;
72603;SDS011;60645;56.968;24.196;2022-09-02T16:44:21;5.20;;;1.25;;
72603;SDS011;60645;56.968;24.196;2022-09-02T16:46:50;3.13;;;1.02;;
72603;SDS011;60645;56.968;24.196;2022-09-02T16:49:18;4.03;;;0.85;;
72603;SDS011;60645;56.968;24.196;2022-09-02T16:51:48;3.45;;;1.05;;
72603;SDS011;60645;56.968;24.196;2022-09-02T16:54:24;2.97;;;1.33;;
72603;SDS011;60645;56.968;24.196;2022-09-02T16:56:57;3.75;;;1.20;;
72603;SDS011;60645;56.968;24.196;2022-09-02T16:59:25;3.72;;;0.98;;
72603;SDS011;60645;56.968;24.196;2022-09-02T17:01:52;6.10;;;0.90;;
72603;SDS011;60645;56.968;24.196;2022-09-02T17:04:19;2.33;;;1.02;;
72603;SDS011;60645;56.968;24.196;2022-09-02T17:06:46;4.90;;;0.93;;
72603;SDS011;60645;56.968;24.196;2022-09-02T17:09:14;2.90;;;0.80;;
72603;SDS011;60645;56.968;24.196;2022-09-02T17:11:41;5.10;;;1.02;;
72603;SDS011;60645;56.968;24.196;2022-09-02T17:14:11;3.30;;;1.20;;
72603;SDS011;60645;56.968;24.196;2022-09-02T17:16:42;3.92;;;1.13;;
72603;SDS011;60645;56.968;24.196;2022-09-02T17:19:11;3.00;;;0.98;;
72603;SDS011;60645;56.968;24.196;2022-09-02T17:21:43;5.25;;;1.10;;
72603;SDS011;60645;56.968;24.196;2022-09-02T17:24:12;2.63;;;1.02;;
72603;SDS011;60645;56.968;24.196;2022-09-02T17:26:41;4.00;;;1.10;;
72603;SDS011;60645;56.968;24.196;2022-09-02T17:29:11;2.75;;;0.95;;
72603;SDS011;60645;56.968;24.196;2022-09-02T17:32:03;3.40;;;1.08;;
72603;SDS011;60645;56.968;24.196;2022-09-02T17:34:31;2.20;;;0.70;;
72603;SDS011;60645;56.968;24.196;2022-09-02T17:36:59;4.05;;;0.85;;
72603;SDS011;60645;56.968;24.196;2022-09-02T17:39:25;1.95;;;0.70;;
72603;SDS011;60645;56.968;24.196;2022-09-02T17:41:53;1.92;;;0.90;;
72603;SDS011;60645;56.968;24.196;2022-09-02T17:44:20;2.70;;;0.85;;
72603;SDS011;60645;56.968;24.196;2022-09-02T17:46:54;3.13;;;1.00;;
72603;SDS011;60645;56.968;24.196;2022-09-02T17:49:21;3.13;;;1.00;;
72603;SDS011;60645;56.968;24.196;2022-09-02T17:51:48;4.55;;;1.13;;
72603;SDS011;60645;56.968;24.196;2022-09-02T17:54:15;3.22;;;1.20;;
72603;SDS011;60645;56.968;24.196;2022-09-02T17:59:33;3.35;;;1.00;;
72603;SDS011;60645;56.968;24.196;2022-09-02T18:10:38;3.40;;;1.00;;
72603;SDS011;60645;56.968;24.196;2022-09-02T18:13:39;3.92;;;1.13;;
72603;SDS011;60645;56.968;24.196;2022-09-02T18:30:05;2.80;;;0.88;;
72603;SDS011;60645;56.968;24.196;2022-09-02T18:46:00;3.47;;;0.70;;
72603;SDS011;60645;56.968;24.196;2022-09-02T18:48:30;5.13;;;1.20;;
72603;SDS011;60645;56.968;24.196;2022-09-02T18:51:03;2.17;;;0.90;;
72603;SDS011;60645;56.968;24.196;2022-09-02T18:53:35;1.98;;;1.27;;
72603;SDS011;60645;56.968;24.196;2022-09-02T18:56:10;4.05;;;1.25;;
72603;SDS011;60645;56.968;24.196;2022-09-02T18:58:40;1.75;;;0.70;;
72603;SDS011;60645;56.968;24.196;2022-09-02T19:03:46;2.60;;;1.13;;
72603;SDS011;60645;56.968;24.196;2022-09-02T19:06:18;2.22;;;1.73;;
72603;SDS011;60645;56.968;24.196;2022-09-02T19:08:47;2.95;;;1.20;;
72603;SDS011;60645;56.968;24.196;2022-09-02T19:11:17;1.77;;;1.17;;
72603;SDS011;60645;56.968;24.196;2022-09-02T19:13:48;3.05;;;1.40;;
72603;SDS011;60645;56.968;24.196;2022-09-02T19:16:21;2.15;;;1.10;;
72603;SDS011;60645;56.968;24.196;2022-09-02T19:18:53;2.03;;;1.25;;
72603;SDS011;60645;56.968;24.196;2022-09-02T19:21:30;2.03;;;0.90;;
72603;SDS011;60645;56.968;24.196;2022-09-02T19:24:00;1.63;;;0.93;;
72603;SDS011;60645;56.968;24.196;2022-09-02T19:26:29;3.13;;;1.08;;
72603;SDS011;60645;56.968;24.196;2022-09-02T19:28:56;2.08;;;1.17;;
72603;SDS011;60645;56.968;24.196;2022-09-02T19:31:25;1.70;;;1.20;;
72603;SDS011;60645;56.968;24.196;2022-09-02T19:33:55;2.10;;;1.88;;
72603;SDS011;60645;56.968;24.196;2022-09-02T19:36:25;1.77;;;1.02;;
72603;SDS011;60645;56.968;24.196;2022-09-02T19:38:56;2.80;;;1.10;;
72603;SDS011;60645;56.968;24.196;2022-09-02T19:41:24;3.00;;;1.38;;
72603;SDS011;60645;56.968;24.196;2022-09-02T19:43:53;2.50;;;1.20;;
72603;SDS011;60645;56.968;24.196;2022-09-02T19:46:20;2.25;;;1.20;;
72603;SDS011;60645;56.968;24.196;2022-09-02T19:49:08;2.83;;;1.55;;
72603;SDS011;60645;56.968;24.196;2022-09-02T19:51:35;2.85;;;1.08;;
72603;SDS011;60645;56.968;24.196;2022-09-02T19:54:02;2.08;;;1.30;;
72603;SDS011;60645;56.968;24.196;2022-09-02T19:56:29;2.70;;;1.38;;
72603;SDS011;60645;56.968;24.196;2022-09-02T19:58:56;2.00;;;1.35;;
